Time;durP1;ratioP1;P1;durP2;ratioP2;P2;SDS_P1;SDS_P2;PMS_P1;PMS_P2;Temp;Humidity;BMP_temperature;BMP_pressure;BME280_temperature;BME280_humidity;BME280_pressure;Samples;Min_cycle;Max_cycle;Signal;HPM_P1;HPM_P2
2021/10/21 00:01:18;;;;;;;12.18;4.43;;;14.10;99.90;;;;;;5012327;28;20396;-69
2021/10/21 00:03:43;;;;;;;8.80;4.53;;;14.20;99.90;;;;;;5012124;28;20029;-70
2021/10/21 00:06:09;;;;;;;6.47;4.03;;;14.20;99.90;;;;;;5014879;28;20421;-69
2021/10/21 00:08:35;;;;;;;8.95;4.25;;;14.20;99.90;;;;;;5013647;28;20048;-70
2021/10/21 00:11:02;;;;;;;12.23;5.10;;;14.20;99.90;;;;;;5011792;28;20030;-69
2021/10/21 00:13:27;;;;;;;13.77;4.75;;;14.20;99.90;;;;;;5014197;28;20025;-70
2021/10/21 00:15:53;;;;;;;10.65;4.50;;;14.20;99.90;;;;;;5012377;28;20586;-69
2021/10/21 00:18:19;;;;;;;9.90;4.45;;;14.20;99.90;;;;;;5012506;28;20038;-70
2021/10/21 00:20:45;;;;;;;10.00;4.95;;;14.20;99.90;;;;;;5016411;28;20032;-69
2021/10/21 00:23:11;;;;;;;13.77;5.35;;;14.20;99.90;;;;;;5009824;28;20141;-70
2021/10/21 00:25:37;;;;;;;8.40;4.65;;;14.20;99.90;;;;;;5014641;28;20105;-70
2021/10/21 00:28:06;;;;;;;8.90;4.13;;;14.20;99.90;;;;;;5009714;28;20107;-70
2021/10/21 00:30:31;;;;;;;10.02;4.68;;;14.20;99.90;;;;;;5011588;28;20464;-71
2021/10/21 00:32:57;;;;;;;7.05;4.03;;;14.30;99.90;;;;;;5007417;28;20025;-69
2021/10/21 00:35:23;;;;;;;10.88;4.85;;;14.30;99.90;;;;;;5015005;28;20032;-70
2021/10/21 00:37:49;;;;;;;7.97;3.95;;;14.30;99.90;;;;;;5016695;28;20030;-70
2021/10/21 00:40:15;;;;;;;10.05;4.13;;;14.30;99.90;;;;;;5012712;28;20112;-69
2021/10/21 00:42:40;;;;;;;6.15;3.40;;;14.40;99.90;;;;;;5015478;28;20068;-70
2021/10/21 00:45:07;;;;;;;8.02;4.05;;;14.40;99.90;;;;;;5016388;28;20156;-70
2021/10/21 00:47:32;;;;;;;6.22;4.03;;;14.40;99.90;;;;;;5020725;28;20079;-70
2021/10/21 00:49:58;;;;;;;9.48;3.65;;;14.50;99.90;;;;;;5012606;28;20443;-70
2021/10/21 00:52:24;;;;;;;7.78;3.28;;;14.50;99.90;;;;;;5016424;28;20068;-70
2021/10/21 00:54:51;;;;;;;6.25;4.13;;;14.50;99.90;;;;;;5012188;28;20029;-70
2021/10/21 00:57:18;;;;;;;6.97;3.92;;;14.60;99.90;;;;;;5019640;28;20025;-70
2021/10/21 00:59:47;;;;;;;9.25;4.50;;;14.60;99.90;;;;;;5014071;28;20030;-70
2021/10/21 01:02:13;;;;;;;7.32;3.92;;;14.60;99.90;;;;;;5013109;28;20442;-70
2021/10/21 01:04:42;;;;;;;8.73;4.15;;;14.60;99.90;;;;;;5019522;28;20088;-70
2021/10/21 01:07:08;;;;;;;10.13;4.88;;;14.50;99.90;;;;;;5017009;28;20033;-70
2021/10/21 01:09:36;;;;;;;7.65;4.63;;;14.40;99.90;;;;;;5013514;28;20021;-70
2021/10/21 01:12:07;;;;;;;8.73;4.28;;;14.40;99.90;;;;;;5015623;28;20021;-70
2021/10/21 01:14:33;;;;;;;7.85;4.50;;;14.30;99.90;;;;;;5017746;28;20079;-71
2021/10/21 01:16:59;;;;;;;11.13;4.72;;;14.30;99.90;;;;;;5017823;28;20025;-70
2021/10/21 01:19:25;;;;;;;6.05;4.38;;;14.20;99.90;;;;;;5003868;28;20042;-70
2021/10/21 01:21:54;;;;;;;7.22;3.92;;;14.30;99.90;;;;;;5017407;28;20022;-70
2021/10/21 01:24:21;;;;;;;9.57;4.10;;;14.30;99.90;;;;;;5015522;28;20037;-73
2021/10/21 01:26:50;;;;;;;6.50;3.90;;;14.30;99.90;;;;;;5021064;28;20496;-70
2021/10/21 01:29:22;;;;;;;12.20;4.40;;;14.30;99.90;;;;;;5012314;28;20025;-70
2021/10/21 01:31:48;;;;;;;8.63;4.65;;;14.30;99.90;;;;;;5012117;28;20448;-69
2021/10/21 01:34:14;;;;;;;6.93;4.30;;;14.30;99.90;;;;;;5014505;28;20026;-70
2021/10/21 01:36:42;;;;;;;7.47;4.55;;;14.20;99.90;;;;;;5016170;28;20031;-69
2021/10/21 01:39:11;;;;;;;9.32;4.95;;;14.20;99.90;;;;;;5016407;28;20034;-70
2021/10/21 01:41:37;;;;;;;8.40;4.53;;;14.10;99.90;;;;;;5012916;28;20028;-70
2021/10/21 01:44:04;;;;;;;8.93;4.78;;;14.20;99.90;;;;;;5015869;28;20042;-70
2021/10/21 01:46:30;;;;;;;7.60;4.20;;;14.10;99.90;;;;;;5024397;28;20037;-70
2021/10/21 01:48:55;;;;;;;9.27;4.53;;;14.10;99.90;;;;;;5017792;28;20026;-70
2021/10/21 01:51:21;;;;;;;7.63;4.43;;;14.10;99.90;;;;;;5019845;28;20035;-70
2021/10/21 01:53:48;;;;;;;5.63;3.53;;;14.10;99.90;;;;;;5010568;28;20028;-70
2021/10/21 01:56:14;;;;;;;6.35;4.03;;;14.10;99.90;;;;;;5018148;28;20031;-70
2021/10/21 01:58:40;;;;;;;7.88;4.00;;;14.20;99.90;;;;;;5020637;28;20045;-70
2021/10/21 02:01:06;;;;;;;7.85;3.53;;;14.10;99.90;;;;;;5017563;28;20042;-70
2021/10/21 02:03:31;;;;;;;10.32;4.45;;;14.10;99.90;;;;;;5015113;28;20029;-70
2021/10/21 02:05:58;;;;;;;7.90;3.85;;;14.20;99.90;;;;;;5018276;28;20040;-70
2021/10/21 02:08:23;;;;;;;6.78;3.63;;;14.10;99.90;;;;;;5011920;28;20116;-70
2021/10/21 02:10:49;;;;;;;9.52;3.85;;;14.10;99.90;;;;;;5014916;28;20053;-69
2021/10/21 02:13:15;;;;;;;6.78;3.58;;;14.20;99.90;;;;;;5017478;28;20029;-70
2021/10/21 02:15:41;;;;;;;6.35;3.47;;;14.10;99.90;;;;;;5023452;28;20108;-69
2021/10/21 02:18:09;;;;;;;9.30;3.83;;;14.10;99.90;;;;;;5014101;28;20368;-70
2021/10/21 02:20:35;;;;;;;7.80;3.70;;;14.10;99.90;;;;;;5012537;28;20040;-70
2021/10/21 02:23:01;;;;;;;8.05;4.20;;;14.10;99.90;;;;;;5020322;28;20100;-70
2021/10/21 02:25:27;;;;;;;9.80;3.63;;;14.10;99.90;;;;;;5014623;28;20080;-70
2021/10/21 02:27:53;;;;;;;6.85;4.15;;;14.00;99.90;;;;;;5015719;28;20021;-70
2021/10/21 02:30:21;;;;;;;7.57;3.70;;;14.00;99.90;;;;;;5017870;28;20109;-69
2021/10/21 02:32:47;;;;;;;7.65;3.53;;;13.90;99.90;;;;;;5015306;28;20100;-70
2021/10/21 02:35:13;;;;;;;7.72;3.85;;;13.90;99.90;;;;;;5014864;28;20508;-70
2021/10/21 02:37:39;;;;;;;8.52;4.47;;;13.90;99.90;;;;;;5012700;28;20046;-70
2021/10/21 02:40:07;;;;;;;10.77;5.18;;;13.90;99.90;;;;;;5013101;28;20055;-69
2021/10/21 02:42:33;;;;;;;9.35;4.40;;;13.80;99.90;;;;;;5013725;28;20774;-69
2021/10/21 02:44:59;;;;;;;10.73;4.20;;;13.70;99.90;;;;;;5015833;28;20030;-70
2021/10/21 02:47:25;;;;;;;7.18;3.90;;;13.70;99.90;;;;;;5020737;28;20115;-69
2021/10/21 02:49:50;;;;;;;12.68;4.68;;;13.60;99.90;;;;;;5014745;28;20029;-70
2021/10/21 02:52:16;;;;;;;8.48;4.43;;;13.70;99.90;;;;;;5014946;28;21333;-69
2021/10/21 02:54:42;;;;;;;6.60;4.22;;;13.60;99.90;;;;;;5013398;28;20025;-69
2021/10/21 02:57:08;;;;;;;9.60;4.43;;;13.50;99.90;;;;;;5016234;28;20169;-69
2021/10/21 02:59:34;;;;;;;5.90;3.75;;;13.60;99.90;;;;;;5015833;28;21473;-70
2021/10/21 03:02:00;;;;;;;7.60;3.70;;;13.60;99.90;;;;;;5017654;28;20033;-69
2021/10/21 03:04:26;;;;;;;5.75;3.47;;;13.60;99.90;;;;;;5023524;28;20072;-69
2021/10/21 03:06:52;;;;;;;7.72;3.72;;;13.60;99.90;;;;;;5018299;28;20034;-69
2021/10/21 03:09:17;;;;;;;7.70;3.47;;;13.60;99.90;;;;;;5016110;28;20077;-69
2021/10/21 03:11:43;;;;;;;7.25;3.35;;;13.60;99.90;;;;;;5015156;28;20022;-70
2021/10/21 03:14:09;;;;;;;6.80;3.58;;;13.60;99.90;;;;;;5019967;28;20026;-70
2021/10/21 03:16:35;;;;;;;8.93;3.85;;;13.50;99.90;;;;;;5020041;28;20034;-69
2021/10/21 03:19:05;;;;;;;8.00;3.72;;;13.50;99.90;;;;;;5014904;28;20490;-69
2021/10/21 03:21:32;;;;;;;11.38;4.38;;;13.50;99.90;;;;;;5022540;28;20106;-70
2021/10/21 03:23:58;;;;;;;7.65;4.15;;;13.40;99.90;;;;;;5018498;28;20026;-70
2021/10/21 03:26:25;;;;;;;8.90;4.75;;;13.40;99.90;;;;;;5014895;28;20033;-70
2021/10/21 03:28:51;;;;;;;12.02;6.00;;;13.40;99.90;;;;;;5018769;28;20025;-69
2021/10/21 03:31:18;;;;;;;10.48;5.75;;;13.30;99.90;;;;;;5015381;28;20472;-69
2021/10/21 03:33:44;;;;;;;10.60;6.00;;;13.30;99.90;;;;;;5015527;28;20400;-70
2021/10/21 03:36:10;;;;;;;9.82;7.18;;;13.30;99.90;;;;;;5019539;28;20067;-69
2021/10/21 03:38:36;;;;;;;13.60;7.30;;;13.30;99.90;;;;;;5015703;28;20087;-70
2021/10/21 03:41:02;;;;;;;11.90;7.00;;;13.30;99.90;;;;;;5014000;28;20478;-70
2021/10/21 03:43:28;;;;;;;11.90;6.82;;;13.30;99.90;;;;;;5015602;28;20037;-69
2021/10/21 03:45:54;;;;;;;13.15;6.45;;;13.30;99.90;;;;;;5012127;28;20419;-69
2021/10/21 03:48:20;;;;;;;10.95;6.07;;;13.30;99.90;;;;;;5010344;28;20041;-69
2021/10/21 03:50:46;;;;;;;11.05;5.80;;;13.30;99.90;;;;;;5014677;28;20033;-70
2021/10/21 03:53:13;;;;;;;9.38;5.78;;;13.30;99.90;;;;;;5017218;28;20112;-70
2021/10/21 03:55:42;;;;;;;13.45;6.78;;;13.30;99.90;;;;;;5016782;28;20037;-69
2021/10/21 03:58:09;;;;;;;14.88;7.07;;;13.30;99.90;;;;;;5017500;28;20030;-69
2021/10/21 04:00:34;;;;;;;10.02;6.28;;;13.30;99.90;;;;;;5018158;28;20041;-69
2021/10/21 04:03:00;;;;;;;10.20;6.03;;;13.40;99.90;;;;;;5014805;28;20033;-69
2021/10/21 04:05:29;;;;;;;10.23;6.22;;;13.40;99.90;;;;;;5014881;28;20080;-70
2021/10/21 04:07:54;;;;;;;11.10;6.45;;;13.40;99.90;;;;;;5012826;28;20034;-70
2021/10/21 04:10:20;;;;;;;14.75;6.78;;;13.40;99.90;;;;;;5018435;28;20646;-70
2021/10/21 04:12:46;;;;;;;19.92;7.55;;;13.40;99.90;;;;;;5015437;28;20030;-69
2021/10/21 04:15:12;;;;;;;15.43;8.50;;;13.50;99.90;;;;;;5016189;28;20030;-69
2021/10/21 04:17:39;;;;;;;14.18;8.10;;;13.40;99.90;;;;;;5016790;28;20026;-69
2021/10/21 04:20:06;;;;;;;4.47;2.70;;;13.40;99.90;;;;;;5018010;28;20022;-69
2021/10/21 04:22:32;;;;;;;3.75;2.22;;;13.10;99.90;;;;;;5020778;28;20026;-69
2021/10/21 04:24:59;;;;;;;3.83;2.15;;;12.80;99.90;;;;;;5015718;28;20108;-68
2021/10/21 04:27:25;;;;;;;3.22;1.70;;;12.50;99.90;;;;;;5019246;28;20041;-69
2021/10/21 04:29:51;;;;;;;3.83;1.95;;;12.40;99.90;;;;;;5018166;28;20527;-69
2021/10/21 04:32:17;;;;;;;3.35;2.22;;;12.30;99.90;;;;;;5019952;28;20076;-69
2021/10/21 04:34:42;;;;;;;3.45;1.73;;;12.20;99.90;;;;;;5013814;28;20105;-69
2021/10/21 04:37:08;;;;;;;4.95;2.20;;;12.10;99.90;;;;;;5014575;28;20037;-69
2021/10/21 04:39:34;;;;;;;4.90;2.67;;;12.00;99.90;;;;;;5015163;28;20040;-68
2021/10/21 04:42:00;;;;;;;5.68;2.53;;;12.00;99.90;;;;;;5020499;28;20152;-69
2021/10/21 04:44:25;;;;;;;4.40;2.90;;;12.00;99.90;;;;;;5022958;28;20058;-68
2021/10/21 04:46:51;;;;;;;6.85;3.00;;;12.00;99.90;;;;;;5020130;28;20029;-69
2021/10/21 04:49:17;;;;;;;5.75;3.00;;;12.00;99.90;;;;;;5022302;28;20025;-69
2021/10/21 04:51:43;;;;;;;8.52;3.28;;;12.00;99.90;;;;;;5011292;28;20100;-69
2021/10/21 04:54:09;;;;;;;4.47;2.63;;;12.00;99.90;;;;;;5020861;28;20034;-69
2021/10/21 04:56:34;;;;;;;8.80;3.00;;;12.00;99.90;;;;;;5015954;28;20388;-69
2021/10/21 04:59:02;;;;;;;7.45;2.90;;;12.00;99.90;;;;;;5016664;28;20056;-69
2021/10/21 05:01:28;;;;;;;5.97;2.75;;;12.00;99.90;;;;;;5011018;28;20020;-69
2021/10/21 05:03:54;;;;;;;4.28;2.78;;;12.00;99.90;;;;;;5015297;28;20113;-69
2021/10/21 05:06:20;;;;;;;4.82;2.58;;;12.00;99.90;;;;;;5016621;28;20120;-70
2021/10/21 05:08:46;;;;;;;6.28;2.85;;;12.00;99.90;;;;;;5020670;28;20022;-69
2021/10/21 05:11:11;;;;;;;8.45;3.00;;;12.10;99.90;;;;;;5015636;28;20049;-70
2021/10/21 05:13:37;;;;;;;23.10;2.95;;;12.20;99.90;;;;;;5020942;28;20022;-70
2021/10/21 05:16:03;;;;;;;7.25;1.98;;;12.10;99.90;;;;;;5022325;28;20101;-70
2021/10/21 05:18:29;;;;;;;6.57;2.10;;;12.10;99.90;;;;;;5025560;28;20471;-70
2021/10/21 05:20:55;;;;;;;3.10;1.60;;;12.00;99.90;;;;;;5016267;28;20040;-70
2021/10/21 05:23:20;;;;;;;3.45;1.80;;;11.90;99.90;;;;;;5016285;28;20032;-70
2021/10/21 05:25:46;;;;;;;4.18;1.48;;;11.90;99.90;;;;;;5020605;28;20034;-69
2021/10/21 05:28:13;;;;;;;6.20;1.27;;;11.80;99.90;;;;;;5020487;28;20036;-70
2021/10/21 05:30:40;;;;;;;5.32;1.90;;;11.80;99.90;;;;;;5014368;28;20364;-69
2021/10/21 05:33:06;;;;;;;3.47;1.27;;;11.80;99.90;;;;;;5020441;28;20029;-70
2021/10/21 05:35:32;;;;;;;6.85;1.63;;;11.80;99.90;;;;;;5023724;28;20037;-70
2021/10/21 05:37:57;;;;;;;6.55;1.17;;;11.70;99.90;;;;;;5011389;28;20033;-74
2021/10/21 05:40:24;;;;;;;4.63;1.77;;;11.80;99.90;;;;;;5013476;28;20092;-70
2021/10/21 05:42:49;;;;;;;2.75;1.52;;;11.80;99.90;;;;;;5015516;28;20022;-69
2021/10/21 05:45:15;;;;;;;5.32;1.10;;;11.80;99.90;;;;;;5016344;28;20026;-70
2021/10/21 05:47:42;;;;;;;7.15;1.70;;;11.80;99.90;;;;;;5017769;28;20357;-69
2021/10/21 05:50:09;;;;;;;6.95;1.60;;;11.90;99.90;;;;;;5019721;28;20474;-69
2021/10/21 05:52:37;;;;;;;3.03;1.42;;;11.80;99.90;;;;;;5019015;28;20021;-70
2021/10/21 05:55:04;;;;;;;3.33;1.70;;;11.80;99.90;;;;;;5007473;28;20065;-70
2021/10/21 05:57:30;;;;;;;5.20;2.38;;;11.80;99.90;;;;;;5006667;28;20072;-69
2021/10/21 05:59:55;;;;;;;4.70;2.08;;;11.80;99.90;;;;;;5007958;28;20053;-70
2021/10/21 06:02:21;;;;;;;3.53;1.50;;;11.80;99.90;;;;;;5013474;28;20053;-70
2021/10/21 06:04:47;;;;;;;5.90;1.60;;;11.80;99.90;;;;;;5008325;28;20096;-70
2021/10/21 06:07:14;;;;;;;5.15;1.30;;;11.80;99.90;;;;;;5011378;28;20029;-71
2021/10/21 06:09:44;;;;;;;4.82;1.45;;;11.80;99.90;;;;;;5015942;28;20037;-70
2021/10/21 06:12:10;;;;;;;4.20;1.60;;;11.80;99.90;;;;;;5013478;28;20057;-70
2021/10/21 06:14:36;;;;;;;2.65;1.58;;;11.80;99.90;;;;;;5020962;28;20036;-72
2021/10/21 06:17:02;;;;;;;2.67;1.20;;;11.80;99.90;;;;;;5015568;28;20446;-70
2021/10/21 06:19:28;;;;;;;4.03;1.48;;;11.90;99.90;;;;;;5016868;28;20029;-71
2021/10/21 06:22:05;;;;;;;4.45;1.60;;;11.90;99.90;;;;;;5016699;28;20025;-69
2021/10/21 06:24:31;;;;;;;3.70;1.40;;;11.90;99.90;;;;;;5014782;28;20373;-69
2021/10/21 06:26:56;;;;;;;5.07;1.40;;;11.80;99.90;;;;;;5017311;28;20037;-69
2021/10/21 06:29:22;;;;;;;4.85;1.50;;;11.80;99.90;;;;;;5019309;28;20021;-70
2021/10/21 06:31:49;;;;;;;4.13;1.35;;;11.80;99.90;;;;;;5018277;28;20422;-69
2021/10/21 06:34:16;;;;;;;5.75;1.50;;;11.80;99.90;;;;;;5018933;28;20479;-70
2021/10/21 06:36:42;;;;;;;4.38;1.48;;;11.80;99.90;;;;;;5015559;28;20026;-69
2021/10/21 06:39:08;;;;;;;2.63;1.20;;;11.70;99.90;;;;;;5016417;28;20034;-70
2021/10/21 06:41:34;;;;;;;4.53;2.05;;;11.70;99.90;;;;;;5015170;28;20048;-69
2021/10/21 06:44:00;;;;;;;6.40;1.98;;;11.60;99.90;;;;;;5017409;28;20063;-69
2021/10/21 06:46:27;;;;;;;9.02;1.67;;;11.70;99.90;;;;;;5012205;28;20110;-69
2021/10/21 06:48:54;;;;;;;6.75;1.70;;;11.60;99.90;;;;;;5018609;28;20029;-69
2021/10/21 06:51:21;;;;;;;4.30;1.80;;;11.60;99.90;;;;;;5015142;28;20029;-69
2021/10/21 06:53:47;;;;;;;5.65;2.63;;;11.50;99.90;;;;;;5014124;28;20026;-69
2021/10/21 06:56:13;;;;;;;8.75;1.75;;;11.50;99.90;;;;;;5014270;28;20041;-69
2021/10/21 06:58:39;;;;;;;6.57;1.77;;;11.40;99.90;;;;;;5011797;28;21669;-69
2021/10/21 07:01:05;;;;;;;5.55;1.92;;;11.30;99.90;;;;;;5016142;28;20048;-69
2021/10/21 07:03:31;;;;;;;5.72;2.20;;;11.30;99.90;;;;;;5016932;28;20494;-69
2021/10/21 07:05:57;;;;;;;6.03;2.08;;;11.30;99.90;;;;;;5017691;28;20029;-69
2021/10/21 07:08:26;;;;;;;11.25;2.70;;;11.30;99.90;;;;;;5017343;28;20026;-69
2021/10/21 07:10:53;;;;;;;3.80;2.10;;;11.30;99.90;;;;;;5016172;28;20022;-70
2021/10/21 07:13:18;;;;;;;7.88;2.35;;;11.30;99.90;;;;;;5017793;28;20038;-70
2021/10/21 07:15:44;;;;;;;3.63;1.95;;;11.30;99.90;;;;;;5012428;28;20040;-69
2021/10/21 07:18:11;;;;;;;6.30;1.70;;;11.30;99.90;;;;;;5019356;28;20105;-69
2021/10/21 07:20:36;;;;;;;3.63;1.40;;;11.30;99.90;;;;;;5014133;28;20059;-69
2021/10/21 07:23:02;;;;;;;2.35;1.50;;;11.30;99.90;;;;;;5009348;28;20037;-68
2021/10/21 07:25:28;;;;;;;5.13;1.73;;;11.20;99.90;;;;;;5018252;28;20034;-69
2021/10/21 07:27:58;;;;;;;5.53;1.90;;;11.20;99.90;;;;;;5015230;28;20092;-68
2021/10/21 07:30:26;;;;;;;2.05;1.10;;;11.20;99.90;;;;;;5019998;28;20049;-68
2021/10/21 07:32:54;;;;;;;6.32;1.45;;;11.10;99.90;;;;;;5027949;28;20054;-69
2021/10/21 07:35:21;;;;;;;5.63;1.00;;;11.10;99.90;;;;;;5015077;28;20362;-68
2021/10/21 07:37:47;;;;;;;2.47;0.80;;;11.00;99.90;;;;;;5014555;28;20030;-69
2021/10/21 07:40:16;;;;;;;2.92;1.27;;;10.90;99.90;;;;;;5013304;28;20029;-69
2021/10/21 07:42:42;;;;;;;4.85;1.10;;;10.90;99.90;;;;;;5013327;28;20054;-70
2021/10/21 07:45:10;;;;;;;2.65;0.80;;;10.90;99.90;;;;;;5014991;28;20061;-69
2021/10/21 07:47:36;;;;;;;3.88;0.88;;;10.90;99.90;;;;;;5019633;28;20083;-70
2021/10/21 07:50:05;;;;;;;4.22;1.02;;;10.90;99.90;;;;;;5016432;28;21474;-69
2021/10/21 07:52:31;;;;;;;5.20;2.17;;;10.90;99.90;;;;;;5019118;28;20376;-69
2021/10/21 07:54:57;;;;;;;4.57;2.70;;;10.90;99.90;;;;;;5016319;28;20052;-69
2021/10/21 07:57:23;;;;;;;1.77;1.15;;;10.90;99.90;;;;;;5013827;28;20512;-69
2021/10/21 07:59:49;;;;;;;4.13;1.33;;;10.80;99.90;;;;;;5014817;28;20030;-70
2021/10/21 08:02:15;;;;;;;1.27;1.00;;;10.80;99.90;;;;;;5018760;28;20056;-69
2021/10/21 08:04:42;;;;;;;1.60;1.17;;;10.80;99.90;;;;;;5017052;28;20834;-69
2021/10/21 08:07:08;;;;;;;4.53;1.25;;;10.80;99.90;;;;;;5014861;28;20026;-70
2021/10/21 08:09:33;;;;;;;2.53;1.25;;;10.80;99.90;;;;;;5018561;28;20080;-69
2021/10/21 08:12:02;;;;;;;1.50;0.85;;;10.80;99.90;;;;;;5015511;28;20070;-71
2021/10/21 08:14:27;;;;;;;5.90;1.00;;;10.80;99.90;;;;;;5022231;28;20026;-70
2021/10/21 08:17:03;;;;;;;3.50;0.80;;;10.90;99.90;;;;;;5022911;28;20040;-70
2021/10/21 08:19:29;;;;;;;3.10;1.10;;;10.80;99.90;;;;;;5016279;28;20026;-71
2021/10/21 08:21:55;;;;;;;2.65;0.85;;;10.90;99.90;;;;;;5021627;28;20069;-72
2021/10/21 08:24:22;;;;;;;7.50;0.95;;;10.90;99.90;;;;;;5016690;28;20026;-71
2021/10/21 08:26:49;;;;;;;2.13;1.00;;;10.80;99.90;;;;;;5013502;28;20534;-71
2021/10/21 08:29:16;;;;;;;3.83;0.93;;;10.90;99.90;;;;;;5019989;28;20034;-71
2021/10/21 08:31:42;;;;;;;3.88;0.70;;;10.90;99.90;;;;;;5014969;28;20018;-71
2021/10/21 08:34:08;;;;;;;3.30;0.60;;;10.80;99.90;;;;;;5017970;28;20057;-71
2021/10/21 08:36:34;;;;;;;4.25;0.80;;;10.70;99.90;;;;;;5013836;28;20038;-71
2021/10/21 08:38:59;;;;;;;2.83;0.50;;;10.60;99.90;;;;;;5014192;28;20080;-70
2021/10/21 08:41:25;;;;;;;3.90;0.70;;;10.60;99.90;;;;;;5013736;28;20029;-71
2021/10/21 08:43:51;;;;;;;4.00;0.80;;;10.50;99.90;;;;;;5030230;28;20033;-71
2021/10/21 08:46:23;;;;;;;4.22;0.63;;;10.50;99.90;;;;;;5020149;28;20026;-71
2021/10/21 08:48:58;;;;;;;6.68;0.90;;;10.50;99.90;;;;;;5017014;28;20029;-71
2021/10/21 08:51:24;;;;;;;7.57;0.80;;;10.50;99.90;;;;;;5013159;28;20476;-71
2021/10/21 08:53:50;;;;;;;4.93;1.00;;;10.50;99.90;;;;;;5013904;28;20030;-72
2021/10/21 08:56:23;;;;;;;4.03;1.00;;;10.50;99.90;;;;;;5015974;28;20037;-71
2021/10/21 08:58:50;;;;;;;3.35;1.42;;;10.50;99.90;;;;;;5011879;28;20113;-71
2021/10/21 09:01:23;;;;;;;4.07;0.95;;;10.50;99.90;;;;;;5016139;28;20057;-71
2021/10/21 09:04:03;;;;;;;4.05;0.90;;;10.60;99.90;;;;;;5012421;28;20029;-71
2021/10/21 09:08:58;;;;;;;3.53;0.80;;;10.60;99.90;;;;;;5019369;28;20056;-71
2021/10/21 09:11:24;;;;;;;5.93;0.95;;;10.70;99.90;;;;;;5014602;28;20033;-70
2021/10/21 09:14:06;;;;;;;5.68;0.93;;;10.70;99.90;;;;;;5010252;28;20022;-72
2021/10/21 09:16:32;;;;;;;4.68;1.00;;;10.80;99.90;;;;;;5022292;28;20033;-71
2021/10/21 09:19:08;;;;;;;5.68;1.30;;;10.80;99.90;;;;;;5019960;28;20083;-71
2021/10/21 09:21:37;;;;;;;7.93;1.45;;;10.90;99.90;;;;;;5009836;28;20037;-71
2021/10/21 09:24:31;;;;;;;4.55;1.00;;;10.90;99.90;;;;;;5024597;28;20086;-71
2021/10/21 09:27:18;;;;;;;5.32;2.15;;;11.00;99.90;;;;;;5015302;28;20022;-71
2021/10/21 09:29:49;;;;;;;8.35;1.60;;;11.10;99.90;;;;;;5006372;28;20088;-71
2021/10/21 09:32:23;;;;;;;5.72;1.75;;;11.10;99.90;;;;;;5017294;28;20041;-71
2021/10/21 09:34:53;;;;;;;4.38;1.20;;;11.20;99.90;;;;;;5021302;28;20021;-71
2021/10/21 09:37:31;;;;;;;8.70;1.88;;;11.20;99.90;;;;;;5025702;28;20475;-71
2021/10/21 09:40:01;;;;;;;8.27;1.65;;;11.20;99.90;;;;;;5018255;28;20089;-72
2021/10/21 09:42:32;;;;;;;11.77;2.30;;;11.20;99.90;;;;;;5017201;28;20381;-71
2021/10/21 09:45:19;;;;;;;10.90;1.70;;;11.20;99.90;;;;;;5020858;28;20026;-71
2021/10/21 09:47:52;;;;;;;11.52;1.73;;;11.30;99.90;;;;;;5012109;28;20377;-71
2021/10/21 09:50:37;;;;;;;8.10;1.50;;;11.20;99.90;;;;;;5016334;28;20026;-72
2021/10/21 09:53:20;;;;;;;12.25;1.75;;;11.20;99.90;;;;;;5010441;28;20121;-71
2021/10/21 09:55:48;;;;;;;6.28;1.52;;;11.30;99.90;;;;;;5016763;28;20886;-72
2021/10/21 09:58:18;;;;;;;5.68;1.40;;;11.30;99.90;;;;;;5008369;28;20080;-71
2021/10/21 10:00:44;;;;;;;7.28;1.23;;;11.20;99.90;;;;;;5012371;28;20032;-72
2021/10/21 10:03:12;;;;;;;8.65;1.50;;;11.10;99.90;;;;;;5018597;28;20054;-71
2021/10/21 10:05:43;;;;;;;6.07;1.20;;;11.10;99.90;;;;;;5014379;28;20053;-72
2021/10/21 10:08:09;;;;;;;6.82;0.98;;;11.10;99.90;;;;;;5006890;28;20033;-72
2021/10/21 10:10:40;;;;;;;6.30;1.30;;;11.00;99.90;;;;;;5010899;28;20501;-72
2021/10/21 10:13:06;;;;;;;2.92;0.80;;;11.00;99.90;;;;;;5017022;28;20082;-71
2021/10/21 10:15:35;;;;;;;10.82;1.50;;;10.90;99.90;;;;;;5022609;28;20100;-71
2021/10/21 10:18:02;;;;;;;6.20;2.13;;;10.90;99.90;;;;;;5022785;28;20116;-72
2021/10/21 10:20:29;;;;;;;7.78;1.42;;;10.90;99.90;;;;;;5009907;28;20025;-72
2021/10/21 10:22:56;;;;;;;7.40;1.40;;;10.80;99.90;;;;;;5016380;28;20030;-71
2021/10/21 10:25:23;;;;;;;5.25;1.10;;;10.80;99.90;;;;;;5014893;28;20125;-71
2021/10/21 10:27:56;;;;;;;5.65;1.08;;;10.80;99.90;;;;;;5012736;28;20112;-72
2021/10/21 10:30:49;;;;;;;4.40;1.00;;;10.80;99.90;;;;;;5012621;28;20037;-71
2021/10/21 10:33:34;;;;;;;5.07;1.05;;;10.90;99.90;;;;;;5012044;28;20037;-73
2021/10/21 10:36:21;;;;;;;6.25;1.30;;;10.90;99.90;;;;;;5009470;28;20460;-72
2021/10/21 10:38:47;;;;;;;4.97;0.82;;;10.90;99.90;;;;;;5021378;28;20033;-72
2021/10/21 10:41:33;;;;;;;9.05;1.80;;;11.00;99.90;;;;;;5013713;28;20026;-72
2021/10/21 10:43:59;;;;;;;6.05;1.00;;;11.20;99.90;;;;;;5012675;28;20092;-73
2021/10/21 10:47:05;;;;;;;8.73;1.20;;;12.00;99.90;;;;;;5011005;28;20854;-72
2021/10/21 10:49:39;;;;;;;7.45;1.70;;;12.10;99.90;;;;;;4977937;28;20392;-71
2021/10/21 10:52:06;;;;;;;5.97;1.20;;;12.10;99.90;;;;;;4979466;28;20027;-72
2021/10/21 10:54:52;;;;;;;6.57;1.25;;;12.00;99.90;;;;;;4973461;28;20035;-73
2021/10/21 10:57:23;;;;;;;5.50;1.10;;;12.00;99.90;;;;;;4972170;28;20054;-73
2021/10/21 10:59:50;;;;;;;12.32;2.05;;;12.00;99.90;;;;;;4970987;28;20416;-73
2021/10/21 11:02:25;;;;;;;5.07;1.25;;;12.10;99.90;;;;;;4974091;28;20039;-71
2021/10/21 11:04:57;;;;;;;10.63;1.50;;;12.00;99.90;;;;;;4972153;28;20657;-72
2021/10/21 11:07:46;;;;;;;11.13;2.25;;;11.90;99.90;;;;;;4977371;28;20085;-72
2021/10/21 11:10:27;;;;;;;9.13;1.52;;;11.80;99.90;;;;;;4968410;28;20038;-72
2021/10/21 11:12:58;;;;;;;7.90;1.23;;;11.90;99.90;;;;;;4977098;28;20402;-71
2021/10/21 11:15:34;;;;;;;10.13;1.58;;;12.40;99.90;;;;;;4979848;28;20125;-72
2021/10/21 11:18:01;;;;;;;10.98;1.98;;;12.80;99.90;;;;;;4975404;28;20377;-72
2021/10/21 11:20:27;;;;;;;6.43;1.42;;;13.10;99.90;;;;;;4993823;28;20046;-72
2021/10/21 11:23:04;;;;;;;8.05;1.55;;;13.40;99.90;;;;;;5018345;28;20045;-72
2021/10/21 11:25:35;;;;;;;7.32;1.45;;;13.60;99.90;;;;;;5014278;28;20029;-72
2021/10/21 11:28:01;;;;;;;10.05;1.40;;;13.60;99.90;;;;;;5016755;28;20101;-72
2021/10/21 11:30:33;;;;;;;8.05;1.63;;;13.70;99.90;;;;;;5017062;28;20097;-72
2021/10/21 11:33:03;;;;;;;5.70;1.83;;;13.60;99.90;;;;;;5018169;28;20038;-72
2021/10/21 11:35:32;;;;;;;12.50;1.95;;;13.60;99.90;;;;;;5020526;28;20033;-72
2021/10/21 11:38:01;;;;;;;8.30;1.83;;;13.60;99.90;;;;;;5021279;28;20038;-72
2021/10/21 11:40:35;;;;;;;9.95;1.80;;;13.60;99.90;;;;;;5017522;28;20087;-72
2021/10/21 11:43:08;;;;;;;6.03;1.08;;;13.50;99.90;;;;;;5019721;28;20033;-72
2021/10/21 11:45:39;;;;;;;5.95;1.58;;;13.50;99.90;;;;;;5018133;28;20484;-72
2021/10/21 11:48:06;;;;;;;;;;;13.30;99.90;;;;;;5015627;28;20443;-71
2021/10/21 11:50:43;;;;;;;8.68;1.95;;;13.00;99.90;;;;;;5006591;28;19909;-72
2021/10/21 11:53:11;;;;;;;9.48;1.83;;;12.60;99.90;;;;;;5018832;28;20026;-72
2021/10/21 11:55:42;;;;;;;10.65;1.75;;;12.10;99.90;;;;;;5016015;28;20022;-73
2021/10/21 11:58:10;;;;;;;142.77;83.90;;;12.00;99.90;;;;;;5019314;28;20519;-71
2021/10/21 12:00:37;;;;;;;244.23;126.40;;;11.80;99.90;;;;;;5017349;28;20440;-71
2021/10/21 12:03:03;;;;;;;21.73;9.63;;;11.70;99.90;;;;;;5019253;28;20083;-71
2021/10/21 12:05:32;;;;;;;10.32;2.33;;;11.60;99.90;;;;;;5011513;28;20032;-72
2021/10/21 12:07:59;;;;;;;10.68;2.30;;;11.50;99.90;;;;;;5018104;28;20072;-72
2021/10/21 12:10:31;;;;;;;14.80;1.85;;;11.40;99.90;;;;;;5010839;28;20088;-73
2021/10/21 12:12:57;;;;;;;10.65;1.58;;;11.40;99.90;;;;;;5018391;28;20037;-72
2021/10/21 12:15:28;;;;;;;11.95;1.88;;;11.40;99.90;;;;;;5020830;28;20040;-72
2021/10/21 12:17:54;;;;;;;7.25;1.50;;;11.40;99.90;;;;;;5018879;28;20484;-72
2021/10/21 12:20:41;;;;;;;11.90;2.22;;;11.40;99.90;;;;;;5014734;28;20034;-72
2021/10/21 12:23:24;;;;;;;11.95;1.83;;;11.50;99.90;;;;;;5016117;28;20068;-72
2021/10/21 12:25:53;;;;;;;13.68;1.60;;;11.30;99.90;;;;;;5018671;28;20033;-72
2021/10/21 12:28:20;;;;;;;10.98;1.50;;;11.30;99.90;;;;;;5011647;28;20041;-72
2021/10/21 12:30:47;;;;;;;7.43;1.40;;;11.30;99.90;;;;;;5017464;28;20041;-71
2021/10/21 12:33:18;;;;;;;11.77;2.03;;;11.40;99.90;;;;;;5017486;28;20026;-72
2021/10/21 12:36:03;;;;;;;7.63;1.70;;;11.50;99.90;;;;;;5014870;28;20084;-71
2021/10/21 12:38:31;;;;;;;10.70;2.13;;;11.50;99.90;;;;;;5014720;28;20033;-71
2021/10/21 12:40:59;;;;;;;15.82;1.85;;;11.60;99.90;;;;;;5002319;28;20026;-72
2021/10/21 12:43:27;;;;;;;17.00;2.28;;;11.50;99.90;;;;;;5016426;28;20034;-71
2021/10/21 12:45:53;;;;;;;8.52;1.75;;;11.30;99.90;;;;;;5019200;28;20048;-71
2021/10/21 12:48:30;;;;;;;10.32;1.73;;;11.20;99.90;;;;;;5013141;28;20026;-71
2021/10/21 12:51:14;;;;;;;10.95;2.63;;;11.10;99.90;;;;;;5002435;28;20026;-71
2021/10/21 12:53:51;;;;;;;9.63;1.80;;;11.10;99.90;;;;;;5019820;28;20053;-71